sensor_id;sensor_type;location;lat;lon;timestamp;P1;durP1;ratioP1;P2;durP2;ratioP2
72408;SDS011;60402;48.082;11.628;2024-02-23T00:01:23;0.35;;;0.10;;
72408;SDS011;60402;48.082;11.628;2024-02-23T00:04:09;0.20;;;0.20;;
72408;SDS011;60402;48.082;11.628;2024-02-23T00:06:55;0.45;;;0.20;;
72408;SDS011;60402;48.082;11.628;2024-02-23T00:09:41;0.25;;;0.25;;
72408;SDS011;60402;48.082;11.628;2024-02-23T00:12:26;0.20;;;0.10;;
72408;SDS011;60402;48.082;11.628;2024-02-23T00:15:12;0.10;;;0.03;;
72408;SDS011;60402;48.082;11.628;2024-02-23T00:17:58;0.13;;;0.13;;
72408;SDS011;60402;48.082;11.628;2024-02-23T00:20:43;0.30;;;0.20;;
72408;SDS011;60402;48.082;11.628;2024-02-23T00:23:29;0.20;;;0.20;;
72408;SDS011;60402;48.082;11.628;2024-02-23T00:26:15;0.30;;;0.10;;
72408;SDS011;60402;48.082;11.628;2024-02-23T00:29:02;0.20;;;0.20;;
72408;SDS011;60402;48.082;11.628;2024-02-23T00:31:48;0.08;;;0.08;;
72408;SDS011;60402;48.082;11.628;2024-02-23T00:34:33;0.57;;;0.20;;
72408;SDS011;60402;48.082;11.628;2024-02-23T00:37:19;0.65;;;0.10;;
72408;SDS011;60402;48.082;11.628;2024-02-23T00:40:05;0.13;;;0.00;;
72408;SDS011;60402;48.082;11.628;2024-02-23T00:42:51;0.52;;;0.10;;
72408;SDS011;60402;48.082;11.628;2024-02-23T00:45:37;0.13;;;0.10;;
72408;SDS011;60402;48.082;11.628;2024-02-23T00:48:22;0.20;;;0.20;;
72408;SDS011;60402;48.082;11.628;2024-02-23T00:51:08;0.10;;;0.10;;
72408;SDS011;60402;48.082;11.628;2024-02-23T00:53:54;0.22;;;0.13;;
72408;SDS011;60402;48.082;11.628;2024-02-23T00:56:39;0.08;;;0.08;;
72408;SDS011;60402;48.082;11.628;2024-02-23T00:59:25;0.00;;;0.00;;
72408;SDS011;60402;48.082;11.628;2024-02-23T01:02:11;0.00;;;0.00;;
72408;SDS011;60402;48.082;11.628;2024-02-23T01:04:56;0.10;;;0.10;;
72408;SDS011;60402;48.082;11.628;2024-02-23T01:07:43;0.10;;;0.10;;
72408;SDS011;60402;48.082;11.628;2024-02-23T01:10:29;0.30;;;0.20;;
72408;SDS011;60402;48.082;11.628;2024-02-23T01:13:15;0.20;;;0.20;;
72408;SDS011;60402;48.082;11.628;2024-02-23T01:16:01;0.60;;;0.20;;
72408;SDS011;60402;48.082;11.628;2024-02-23T01:18:46;0.10;;;0.10;;
72408;SDS011;60402;48.082;11.628;2024-02-23T01:21:32;0.25;;;0.10;;
72408;SDS011;60402;48.082;11.628;2024-02-23T01:24:18;0.85;;;0.13;;
72408;SDS011;60402;48.082;11.628;2024-02-23T01:27:04;0.00;;;0.00;;
72408;SDS011;60402;48.082;11.628;2024-02-23T01:29:49;0.57;;;0.20;;
72408;SDS011;60402;48.082;11.628;2024-02-23T01:32:35;0.20;;;0.03;;
72408;SDS011;60402;48.082;11.628;2024-02-23T01:35:22;0.60;;;0.20;;
72408;SDS011;60402;48.082;11.628;2024-02-23T01:38:11;0.10;;;0.10;;
72408;SDS011;60402;48.082;11.628;2024-02-23T01:40:57;0.95;;;0.10;;
72408;SDS011;60402;48.082;11.628;2024-02-23T01:43:42;0.55;;;0.20;;
72408;SDS011;60402;48.082;11.628;2024-02-23T01:46:28;0.43;;;0.20;;
72408;SDS011;60402;48.082;11.628;2024-02-23T01:49:14;0.20;;;0.20;;
72408;SDS011;60402;48.082;11.628;2024-02-23T01:52:02;0.15;;;0.15;;
72408;SDS011;60402;48.082;11.628;2024-02-23T01:54:50;0.05;;;0.05;;
72408;SDS011;60402;48.082;11.628;2024-02-23T01:57:37;0.30;;;0.20;;
72408;SDS011;60402;48.082;11.628;2024-02-23T02:00:24;0.28;;;0.05;;
72408;SDS011;60402;48.082;11.628;2024-02-23T02:03:10;0.10;;;0.10;;
72408;SDS011;60402;48.082;11.628;2024-02-23T02:05:56;0.10;;;0.10;;
72408;SDS011;60402;48.082;11.628;2024-02-23T02:08:43;0.20;;;0.10;;
72408;SDS011;60402;48.082;11.628;2024-02-23T02:11:29;0.10;;;0.10;;
72408;SDS011;60402;48.082;11.628;2024-02-23T02:14:15;0.10;;;0.10;;
72408;SDS011;60402;48.082;11.628;2024-02-23T02:17:01;0.10;;;0.10;;
72408;SDS011;60402;48.082;11.628;2024-02-23T02:19:50;0.13;;;0.13;;
72408;SDS011;60402;48.082;11.628;2024-02-23T02:22:35;1.45;;;0.00;;
72408;SDS011;60402;48.082;11.628;2024-02-23T02:25:21;0.25;;;0.10;;
72408;SDS011;60402;48.082;11.628;2024-02-23T02:28:07;0.20;;;0.10;;
72408;SDS011;60402;48.082;11.628;2024-02-23T02:30:53;0.10;;;0.10;;
72408;SDS011;60402;48.082;11.628;2024-02-23T02:33:39;0.10;;;0.10;;
72408;SDS011;60402;48.082;11.628;2024-02-23T02:36:25;0.08;;;0.08;;
72408;SDS011;60402;48.082;11.628;2024-02-23T02:39:11;0.13;;;0.10;;
72408;SDS011;60402;48.082;11.628;2024-02-23T02:41:57;0.08;;;0.03;;
72408;SDS011;60402;48.082;11.628;2024-02-23T02:44:42;0.68;;;0.10;;
72408;SDS011;60402;48.082;11.628;2024-02-23T02:47:28;0.10;;;0.10;;
72408;SDS011;60402;48.082;11.628;2024-02-23T02:50:14;0.15;;;0.10;;
72408;SDS011;60402;48.082;11.628;2024-02-23T02:52:59;0.10;;;0.10;;
72408;SDS011;60402;48.082;11.628;2024-02-23T02:55:45;0.63;;;0.20;;
72408;SDS011;60402;48.082;11.628;2024-02-23T02:58:31;0.17;;;0.17;;
72408;SDS011;60402;48.082;11.628;2024-02-23T03:01:16;0.10;;;0.10;;
72408;SDS011;60402;48.082;11.628;2024-02-23T03:04:02;0.10;;;0.10;;
72408;SDS011;60402;48.082;11.628;2024-02-23T03:06:48;0.15;;;0.15;;
72408;SDS011;60402;48.082;11.628;2024-02-23T03:09:33;0.10;;;0.10;;
72408;SDS011;60402;48.082;11.628;2024-02-23T03:12:19;0.25;;;0.10;;
72408;SDS011;60402;48.082;11.628;2024-02-23T03:15:05;0.10;;;0.10;;
72408;SDS011;60402;48.082;11.628;2024-02-23T03:17:51;0.43;;;0.20;;
72408;SDS011;60402;48.082;11.628;2024-02-23T03:20:37;0.03;;;0.03;;
72408;SDS011;60402;48.082;11.628;2024-02-23T03:23:22;0.17;;;0.17;;
72408;SDS011;60402;48.082;11.628;2024-02-23T03:26:08;0.10;;;0.10;;
72408;SDS011;60402;48.082;11.628;2024-02-23T03:28:54;0.10;;;0.10;;
72408;SDS011;60402;48.082;11.628;2024-02-23T03:31:39;0.15;;;0.15;;
72408;SDS011;60402;48.082;11.628;2024-02-23T03:34:25;0.10;;;0.10;;
72408;SDS011;60402;48.082;11.628;2024-02-23T03:37:11;0.00;;;0.00;;
72408;SDS011;60402;48.082;11.628;2024-02-23T03:39:56;0.52;;;0.20;;
72408;SDS011;60402;48.082;11.628;2024-02-23T03:42:43;0.20;;;0.10;;
72408;SDS011;60402;48.082;11.628;2024-02-23T03:45:28;0.10;;;0.10;;
72408;SDS011;60402;48.082;11.628;2024-02-23T03:48:14;0.10;;;0.10;;
72408;SDS011;60402;48.082;11.628;2024-02-23T03:51:00;0.15;;;0.15;;
72408;SDS011;60402;48.082;11.628;2024-02-23T03:53:46;0.30;;;0.20;;
72408;SDS011;60402;48.082;11.628;2024-02-23T03:56:41;0.15;;;0.08;;
72408;SDS011;60402;48.082;11.628;2024-02-23T03:59:27;0.30;;;0.15;;
72408;SDS011;60402;48.082;11.628;2024-02-23T04:02:13;0.52;;;0.20;;
72408;SDS011;60402;48.082;11.628;2024-02-23T04:04:58;0.32;;;0.20;;
72408;SDS011;60402;48.082;11.628;2024-02-23T04:07:44;0.20;;;0.10;;
72408;SDS011;60402;48.082;11.628;2024-02-23T04:10:30;0.20;;;0.20;;
72408;SDS011;60402;48.082;11.628;2024-02-23T04:13:15;0.30;;;0.30;;
72408;SDS011;60402;48.082;11.628;2024-02-23T04:16:03;0.10;;;0.10;;
72408;SDS011;60402;48.082;11.628;2024-02-23T04:18:49;0.63;;;0.20;;
72408;SDS011;60402;48.082;11.628;2024-02-23T04:21:35;0.10;;;0.10;;
72408;SDS011;60402;48.082;11.628;2024-02-23T04:24:21;0.10;;;0.10;;
72408;SDS011;60402;48.082;11.628;2024-02-23T04:27:07;0.10;;;0.10;;
72408;SDS011;60402;48.082;11.628;2024-02-23T04:29:53;0.63;;;0.57;;
72408;SDS011;60402;48.082;11.628;2024-02-23T04:32:39;0.10;;;0.10;;
72408;SDS011;60402;48.082;11.628;2024-02-23T04:35:24;0.10;;;0.10;;
72408;SDS011;60402;48.082;11.628;2024-02-23T04:38:11;0.20;;;0.10;;
72408;SDS011;60402;48.082;11.628;2024-02-23T04:40:57;0.38;;;0.15;;
72408;SDS011;60402;48.082;11.628;2024-02-23T04:43:43;0.47;;;0.25;;
72408;SDS011;60402;48.082;11.628;2024-02-23T04:46:30;0.10;;;0.10;;
72408;SDS011;60402;48.082;11.628;2024-02-23T04:49:16;0.63;;;0.15;;
72408;SDS011;60402;48.082;11.628;2024-02-23T04:52:02;0.30;;;0.20;;
72408;SDS011;60402;48.082;11.628;2024-02-23T04:54:50;0.17;;;0.10;;
72408;SDS011;60402;48.082;11.628;2024-02-23T04:57:36;0.10;;;0.10;;
72408;SDS011;60402;48.082;11.628;2024-02-23T05:00:23;0.65;;;0.10;;
72408;SDS011;60402;48.082;11.628;2024-02-23T05:03:08;0.43;;;0.20;;
72408;SDS011;60402;48.082;11.628;2024-02-23T05:05:54;0.10;;;0.10;;
72408;SDS011;60402;48.082;11.628;2024-02-23T05:08:40;0.20;;;0.20;;
72408;SDS011;60402;48.082;11.628;2024-02-23T05:11:26;0.15;;;0.15;;
72408;SDS011;60402;48.082;11.628;2024-02-23T05:14:12;0.10;;;0.10;;
72408;SDS011;60402;48.082;11.628;2024-02-23T05:16:57;1.08;;;0.22;;
72408;SDS011;60402;48.082;11.628;2024-02-23T05:19:43;0.22;;;0.10;;
72408;SDS011;60402;48.082;11.628;2024-02-23T05:22:29;0.20;;;0.20;;
72408;SDS011;60402;48.082;11.628;2024-02-23T05:25:14;0.55;;;0.30;;
72408;SDS011;60402;48.082;11.628;2024-02-23T05:28:00;0.22;;;0.20;;
72408;SDS011;60402;48.082;11.628;2024-02-23T05:30:46;0.55;;;0.30;;
72408;SDS011;60402;48.082;11.628;2024-02-23T05:33:32;0.10;;;0.10;;
72408;SDS011;60402;48.082;11.628;2024-02-23T05:36:17;1.85;;;0.52;;
72408;SDS011;60402;48.082;11.628;2024-02-23T05:39:03;1.27;;;0.50;;
72408;SDS011;60402;48.082;11.628;2024-02-23T05:41:50;0.77;;;0.20;;
72408;SDS011;60402;48.082;11.628;2024-02-23T05:44:35;1.40;;;0.32;;
72408;SDS011;60402;48.082;11.628;2024-02-23T05:47:21;1.75;;;0.30;;
72408;SDS011;60402;48.082;11.628;2024-02-23T05:50:09;1.55;;;0.40;;
72408;SDS011;60402;48.082;11.628;2024-02-23T05:52:55;1.95;;;0.28;;
72408;SDS011;60402;48.082;11.628;2024-02-23T05:55:41;0.25;;;0.20;;
72408;SDS011;60402;48.082;11.628;2024-02-23T05:58:26;0.52;;;0.30;;
72408;SDS011;60402;48.082;11.628;2024-02-23T06:01:12;0.20;;;0.20;;
72408;SDS011;60402;48.082;11.628;2024-02-23T06:03:58;0.20;;;0.20;;
72408;SDS011;60402;48.082;11.628;2024-02-23T06:06:43;0.40;;;0.20;;
72408;SDS011;60402;48.082;11.628;2024-02-23T06:09:29;0.47;;;0.20;;
72408;SDS011;60402;48.082;11.628;2024-02-23T06:12:15;0.80;;;0.30;;
72408;SDS011;60402;48.082;11.628;2024-02-23T06:15:01;0.80;;;0.30;;
72408;SDS011;60402;48.082;11.628;2024-02-23T06:17:46;0.20;;;0.20;;
72408;SDS011;60402;48.082;11.628;2024-02-23T06:20:32;1.48;;;0.32;;
72408;SDS011;60402;48.082;11.628;2024-02-23T06:23:17;0.57;;;0.28;;
72408;SDS011;60402;48.082;11.628;2024-02-23T06:26:04;0.60;;;0.45;;
72408;SDS011;60402;48.082;11.628;2024-02-23T06:28:50;1.60;;;0.45;;
72408;SDS011;60402;48.082;11.628;2024-02-23T06:31:35;1.83;;;0.30;;
72408;SDS011;60402;48.082;11.628;2024-02-23T06:34:21;1.27;;;0.20;;
72408;SDS011;60402;48.082;11.628;2024-02-23T06:37:07;0.95;;;0.30;;
72408;SDS011;60402;48.082;11.628;2024-02-23T06:39:53;0.98;;;0.40;;
72408;SDS011;60402;48.082;11.628;2024-02-23T06:42:39;0.70;;;0.20;;
72408;SDS011;60402;48.082;11.628;2024-02-23T06:45:25;0.30;;;0.25;;
72408;SDS011;60402;48.082;11.628;2024-02-23T06:48:11;0.55;;;0.20;;
72408;SDS011;60402;48.082;11.628;2024-02-23T06:50:57;1.27;;;0.30;;
72408;SDS011;60402;48.082;11.628;2024-02-23T06:53:43;1.48;;;0.25;;
72408;SDS011;60402;48.082;11.628;2024-02-23T06:56:34;1.25;;;0.20;;
72408;SDS011;60402;48.082;11.628;2024-02-23T06:59:21;0.00;;;0.00;;
72408;SDS011;60402;48.082;11.628;2024-02-23T07:02:09;0.80;;;0.40;;
72408;SDS011;60402;48.082;11.628;2024-02-23T07:04:55;0.82;;;0.10;;
72408;SDS011;60402;48.082;11.628;2024-02-23T07:07:42;0.90;;;0.50;;
72408;SDS011;60402;48.082;11.628;2024-02-23T07:10:27;0.75;;;0.30;;
72408;SDS011;60402;48.082;11.628;2024-02-23T07:13:13;0.35;;;0.28;;
72408;SDS011;60402;48.082;11.628;2024-02-23T07:15:59;0.20;;;0.10;;
72408;SDS011;60402;48.082;11.628;2024-02-23T07:18:45;2.00;;;0.40;;
72408;SDS011;60402;48.082;11.628;2024-02-23T07:21:31;1.42;;;0.30;;
72408;SDS011;60402;48.082;11.628;2024-02-23T07:24:17;0.38;;;0.22;;
72408;SDS011;60402;48.082;11.628;2024-02-23T07:27:03;1.05;;;0.25;;
72408;SDS011;60402;48.082;11.628;2024-02-23T07:29:49;1.17;;;0.10;;
72408;SDS011;60402;48.082;11.628;2024-02-23T07:32:34;1.15;;;0.38;;
72408;SDS011;60402;48.082;11.628;2024-02-23T07:35:20;0.50;;;0.30;;
72408;SDS011;60402;48.082;11.628;2024-02-23T07:38:06;1.23;;;0.47;;
72408;SDS011;60402;48.082;11.628;2024-02-23T07:40:51;1.40;;;0.47;;
72408;SDS011;60402;48.082;11.628;2024-02-23T07:43:37;1.10;;;0.57;;
72408;SDS011;60402;48.082;11.628;2024-02-23T07:46:23;2.40;;;0.80;;
72408;SDS011;60402;48.082;11.628;2024-02-23T07:49:08;2.63;;;0.63;;
72408;SDS011;60402;48.082;11.628;2024-02-23T07:51:55;0.68;;;0.30;;
72408;SDS011;60402;48.082;11.628;2024-02-23T07:54:40;0.40;;;0.40;;
72408;SDS011;60402;48.082;11.628;2024-02-23T07:57:27;1.65;;;0.30;;
72408;SDS011;60402;48.082;11.628;2024-02-23T08:00:12;1.23;;;0.47;;
72408;SDS011;60402;48.082;11.628;2024-02-23T08:02:58;0.55;;;0.38;;
72408;SDS011;60402;48.082;11.628;2024-02-23T08:05:45;1.15;;;0.30;;
72408;SDS011;60402;48.082;11.628;2024-02-23T08:08:31;0.35;;;0.30;;
72408;SDS011;60402;48.082;11.628;2024-02-23T08:11:20;1.75;;;0.30;;
72408;SDS011;60402;48.082;11.628;2024-02-23T08:14:05;1.60;;;0.30;;
72408;SDS011;60402;48.082;11.628;2024-02-23T08:16:51;1.40;;;0.40;;
72408;SDS011;60402;48.082;11.628;2024-02-23T08:19:37;0.63;;;0.30;;
72408;SDS011;60402;48.082;11.628;2024-02-23T08:22:23;1.30;;;0.30;;
72408;SDS011;60402;48.082;11.628;2024-02-23T08:25:09;2.42;;;0.82;;
72408;SDS011;60402;48.082;11.628;2024-02-23T08:27:57;1.60;;;0.40;;
72408;SDS011;60402;48.082;11.628;2024-02-23T08:30:44;1.05;;;0.30;;
72408;SDS011;60402;48.082;11.628;2024-02-23T08:33:30;2.15;;;0.70;;
72408;SDS011;60402;48.082;11.628;2024-02-23T08:36:18;1.15;;;0.35;;
72408;SDS011;60402;48.082;11.628;2024-02-23T08:39:04;3.25;;;0.60;;
72408;SDS011;60402;48.082;11.628;2024-02-23T08:41:50;0.55;;;0.22;;
72408;SDS011;60402;48.082;11.628;2024-02-23T08:44:36;1.05;;;0.35;;
72408;SDS011;60402;48.082;11.628;2024-02-23T08:47:24;1.52;;;0.40;;
72408;SDS011;60402;48.082;11.628;2024-02-23T08:50:13;0.40;;;0.35;;
72408;SDS011;60402;48.082;11.628;2024-02-23T08:52:59;2.28;;;0.30;;
72408;SDS011;60402;48.082;11.628;2024-02-23T08:55:45;0.65;;;0.20;;
72408;SDS011;60402;48.082;11.628;2024-02-23T08:58:31;2.30;;;0.40;;
72408;SDS011;60402;48.082;11.628;2024-02-23T09:01:17;2.50;;;0.50;;
72408;SDS011;60402;48.082;11.628;2024-02-23T09:04:03;1.58;;;0.70;;
72408;SDS011;60402;48.082;11.628;2024-02-23T09:06:48;1.92;;;0.70;;
72408;SDS011;60402;48.082;11.628;2024-02-23T09:09:35;2.28;;;0.55;;
72408;SDS011;60402;48.082;11.628;2024-02-23T09:12:21;1.40;;;0.70;;
72408;SDS011;60402;48.082;11.628;2024-02-23T09:15:06;1.70;;;0.47;;
72408;SDS011;60402;48.082;11.628;2024-02-23T09:17:53;2.55;;;0.70;;
72408;SDS011;60402;48.082;11.628;2024-02-23T09:20:38;2.45;;;0.45;;
72408;SDS011;60402;48.082;11.628;2024-02-23T09:23:24;1.05;;;0.45;;
72408;SDS011;60402;48.082;11.628;2024-02-23T09:26:10;0.57;;;0.25;;
72408;SDS011;60402;48.082;11.628;2024-02-23T09:28:58;2.78;;;0.30;;
72408;SDS011;60402;48.082;11.628;2024-02-23T09:31:44;0.68;;;0.40;;
72408;SDS011;60402;48.082;11.628;2024-02-23T09:34:30;2.15;;;0.45;;
72408;SDS011;60402;48.082;11.628;2024-02-23T09:37:15;2.83;;;0.40;;
72408;SDS011;60402;48.082;11.628;2024-02-23T09:40:01;1.35;;;0.50;;
72408;SDS011;60402;48.082;11.628;2024-02-23T09:42:56;0.88;;;0.50;;
72408;SDS011;60402;48.082;11.628;2024-02-23T09:45:42;0.40;;;0.40;;
72408;SDS011;60402;48.082;11.628;2024-02-23T09:48:28;0.70;;;0.35;;
72408;SDS011;60402;48.082;11.628;2024-02-23T09:51:15;1.65;;;0.60;;
72408;SDS011;60402;48.082;11.628;2024-02-23T09:54:01;1.63;;;0.50;;
72408;SDS011;60402;48.082;11.628;2024-02-23T09:56:48;0.38;;;0.30;;
72408;SDS011;60402;48.082;11.628;2024-02-23T09:59:35;0.38;;;0.38;;
72408;SDS011;60402;48.082;11.628;2024-02-23T10:02:21;1.15;;;0.38;;
72408;SDS011;60402;48.082;11.628;2024-02-23T10:05:07;0.82;;;0.50;;
72408;SDS011;60402;48.082;11.628;2024-02-23T10:07:55;0.82;;;0.40;;
72408;SDS011;60402;48.082;11.628;2024-02-23T10:10:41;1.35;;;0.38;;
72408;SDS011;60402;48.082;11.628;2024-02-23T10:13:27;1.45;;;0.50;;
72408;SDS011;60402;48.082;11.628;2024-02-23T10:16:15;1.52;;;0.63;;
72408;SDS011;60402;48.082;11.628;2024-02-23T10:19:01;2.65;;;1.00;;
72408;SDS011;60402;48.082;11.628;2024-02-23T10:21:47;0.50;;;0.47;;
72408;SDS011;60402;48.082;11.628;2024-02-23T10:24:34;0.50;;;0.28;;
72408;SDS011;60402;48.082;11.628;2024-02-23T10:27:22;1.45;;;0.40;;
72408;SDS011;60402;48.082;11.628;2024-02-23T10:30:08;1.75;;;0.38;;
72408;SDS011;60402;48.082;11.628;2024-02-23T10:32:57;0.45;;;0.30;;
72408;SDS011;60402;48.082;11.628;2024-02-23T10:35:43;0.40;;;0.40;;
72408;SDS011;60402;48.082;11.628;2024-02-23T10:38:32;3.15;;;0.50;;
72408;SDS011;60402;48.082;11.628;2024-02-23T10:41:18;2.97;;;0.47;;
72408;SDS011;60402;48.082;11.628;2024-02-23T10:44:03;0.85;;;0.50;;
72408;SDS011;60402;48.082;11.628;2024-02-23T10:46:50;1.02;;;0.50;;
72408;SDS011;60402;48.082;11.628;2024-02-23T10:49:37;0.60;;;0.40;;
72408;SDS011;60402;48.082;11.628;2024-02-23T10:52:24;0.65;;;0.30;;
72408;SDS011;60402;48.082;11.628;2024-02-23T10:55:09;0.45;;;0.30;;
72408;SDS011;60402;48.082;11.628;2024-02-23T10:57:55;2.72;;;0.40;;
72408;SDS011;60402;48.082;11.628;2024-02-23T11:00:42;2.15;;;0.32;;
72408;SDS011;60402;48.082;11.628;2024-02-23T11:03:28;1.50;;;0.43;;
72408;SDS011;60402;48.082;11.628;2024-02-23T11:06:15;0.47;;;0.30;;
72408;SDS011;60402;48.082;11.628;2024-02-23T11:09:06;0.50;;;0.40;;
72408;SDS011;60402;48.082;11.628;2024-02-23T11:11:54;0.52;;;0.30;;
72408;SDS011;60402;48.082;11.628;2024-02-23T11:14:41;0.25;;;0.25;;
72408;SDS011;60402;48.082;11.628;2024-02-23T11:17:30;1.05;;;0.40;;
72408;SDS011;60402;48.082;11.628;2024-02-23T11:20:17;0.75;;;0.20;;
72408;SDS011;60402;48.082;11.628;2024-02-23T11:23:12;0.70;;;0.20;;
72408;SDS011;60402;48.082;11.628;2024-02-23T11:26:04;1.20;;;0.50;;
72408;SDS011;60402;48.082;11.628;2024-02-23T11:28:51;0.93;;;0.40;;
72408;SDS011;60402;48.082;11.628;2024-02-23T11:31:44;2.10;;;0.70;;
72408;SDS011;60402;48.082;11.628;2024-02-23T11:34:31;1.05;;;0.52;;
72408;SDS011;60402;48.082;11.628;2024-02-23T11:37:19;1.08;;;0.40;;
72408;SDS011;60402;48.082;11.628;2024-02-23T11:40:05;1.08;;;0.35;;
72408;SDS011;60402;48.082;11.628;2024-02-23T11:42:54;1.20;;;0.30;;
72408;SDS011;60402;48.082;11.628;2024-02-23T11:45:40;0.30;;;0.30;;
72408;SDS011;60402;48.082;11.628;2024-02-23T11:48:26;1.63;;;0.40;;
72408;SDS011;60402;48.082;11.628;2024-02-23T11:51:15;0.05;;;0.03;;
72408;SDS011;60402;48.082;11.628;2024-02-23T11:54:01;0.65;;;0.38;;
72408;SDS011;60402;48.082;11.628;2024-02-23T11:56:48;0.85;;;0.32;;
72408;SDS011;60402;48.082;11.628;2024-02-23T11:59:35;0.25;;;0.22;;
72408;SDS011;60402;48.082;11.628;2024-02-23T12:02:34;0.20;;;0.20;;
72408;SDS011;60402;48.082;11.628;2024-02-23T12:05:23;1.67;;;0.73;;
72408;SDS011;60402;48.082;11.628;2024-02-23T12:08:09;3.88;;;1.20;;
72408;SDS011;60402;48.082;11.628;2024-02-23T12:10:54;1.52;;;0.70;;
72408;SDS011;60402;48.082;11.628;2024-02-23T12:13:40;6.53;;;1.95;;
72408;SDS011;60402;48.082;11.628;2024-02-23T12:16:29;2.55;;;0.93;;
72408;SDS011;60402;48.082;11.628;2024-02-23T12:19:26;5.00;;;1.70;;
72408;SDS011;60402;48.082;11.628;2024-02-23T12:22:35;1.05;;;0.70;;
72408;SDS011;60402;48.082;11.628;2024-02-23T12:25:31;1.67;;;0.70;;
72408;SDS011;60402;48.082;11.628;2024-02-23T12:28:22;1.33;;;0.40;;
72408;SDS011;60402;48.082;11.628;2024-02-23T12:31:14;2.08;;;0.88;;
72408;SDS011;60402;48.082;11.628;2024-02-23T12:34:11;2.63;;;0.40;;
72408;SDS011;60402;48.082;11.628;2024-02-23T12:37:06;0.50;;;0.30;;
72408;SDS011;60402;48.082;11.628;2024-02-23T12:40:00;0.98;;;0.40;;
72408;SDS011;60402;48.082;11.628;2024-02-23T12:42:46;1.08;;;0.32;;
72408;SDS011;60402;48.082;11.628;2024-02-23T12:45:37;0.50;;;0.50;;
72408;SDS011;60402;48.082;11.628;2024-02-23T12:48:39;0.30;;;0.30;;
72408;SDS011;60402;48.082;11.628;2024-02-23T12:51:31;0.88;;;0.30;;
72408;SDS011;60402;48.082;11.628;2024-02-23T12:54:17;1.33;;;0.68;;
72408;SDS011;60402;48.082;11.628;2024-02-23T12:57:02;1.42;;;0.32;;
72408;SDS011;60402;48.082;11.628;2024-02-23T12:59:48;1.02;;;0.50;;
72408;SDS011;60402;48.082;11.628;2024-02-23T13:02:34;0.32;;;0.30;;
72408;SDS011;60402;48.082;11.628;2024-02-23T13:05:19;0.47;;;0.28;;
72408;SDS011;60402;48.082;11.628;2024-02-23T13:08:05;1.10;;;0.30;;
72408;SDS011;60402;48.082;11.628;2024-02-23T13:10:52;0.93;;;0.25;;
72408;SDS011;60402;48.082;11.628;2024-02-23T13:13:38;2.17;;;0.30;;
72408;SDS011;60402;48.082;11.628;2024-02-23T13:16:24;0.17;;;0.17;;
72408;SDS011;60402;48.082;11.628;2024-02-23T13:19:10;0.38;;;0.20;;
72408;SDS011;60402;48.082;11.628;2024-02-23T13:21:55;0.30;;;0.30;;
72408;SDS011;60402;48.082;11.628;2024-02-23T13:24:41;0.88;;;0.30;;
72408;SDS011;60402;48.082;11.628;2024-02-23T13:27:27;0.63;;;0.20;;
72408;SDS011;60402;48.082;11.628;2024-02-23T13:30:13;0.28;;;0.25;;
72408;SDS011;60402;48.082;11.628;2024-02-23T13:32:59;0.60;;;0.40;;
72408;SDS011;60402;48.082;11.628;2024-02-23T13:35:45;0.75;;;0.40;;
72408;SDS011;60402;48.082;11.628;2024-02-23T13:38:31;1.88;;;0.60;;
72408;SDS011;60402;48.082;11.628;2024-02-23T13:41:17;0.68;;;0.30;;
72408;SDS011;60402;48.082;11.628;2024-02-23T13:44:03;0.38;;;0.30;;
72408;SDS011;60402;48.082;11.628;2024-02-23T13:46:50;1.25;;;0.38;;
72408;SDS011;60402;48.082;11.628;2024-02-23T13:49:35;0.20;;;0.20;;
72408;SDS011;60402;48.082;11.628;2024-02-23T13:52:21;0.50;;;0.30;;
72408;SDS011;60402;48.082;11.628;2024-02-23T13:55:07;1.48;;;0.20;;
72408;SDS011;60402;48.082;11.628;2024-02-23T13:57:53;1.17;;;0.40;;
72408;SDS011;60402;48.082;11.628;2024-02-23T14:00:38;2.00;;;0.32;;
72408;SDS011;60402;48.082;11.628;2024-02-23T14:03:24;0.57;;;0.30;;
72408;SDS011;60402;48.082;11.628;2024-02-23T14:06:10;0.52;;;0.30;;
72408;SDS011;60402;48.082;11.628;2024-02-23T14:08:55;1.38;;;0.40;;
72408;SDS011;60402;48.082;11.628;2024-02-23T14:11:41;1.77;;;0.43;;
72408;SDS011;60402;48.082;11.628;2024-02-23T14:14:27;0.75;;;0.30;;
72408;SDS011;60402;48.082;11.628;2024-02-23T14:17:12;0.68;;;0.38;;
72408;SDS011;60402;48.082;11.628;2024-02-23T14:19:59;2.17;;;0.45;;
72408;SDS011;60402;48.082;11.628;2024-02-23T14:22:45;0.47;;;0.30;;
72408;SDS011;60402;48.082;11.628;2024-02-23T14:25:30;0.20;;;0.20;;
72408;SDS011;60402;48.082;11.628;2024-02-23T14:28:16;0.55;;;0.30;;
72408;SDS011;60402;48.082;11.628;2024-02-23T14:31:02;0.20;;;0.10;;
72408;SDS011;60402;48.082;11.628;2024-02-23T14:33:47;0.45;;;0.40;;
72408;SDS011;60402;48.082;11.628;2024-02-23T14:36:36;0.20;;;0.20;;
72408;SDS011;60402;48.082;11.628;2024-02-23T14:39:22;0.30;;;0.20;;
72408;SDS011;60402;48.082;11.628;2024-02-23T14:42:08;0.40;;;0.10;;
72408;SDS011;60402;48.082;11.628;2024-02-23T14:44:54;0.57;;;0.30;;
72408;SDS011;60402;48.082;11.628;2024-02-23T14:47:39;0.38;;;0.20;;
72408;SDS011;60402;48.082;11.628;2024-02-23T14:50:25;0.45;;;0.30;;
72408;SDS011;60402;48.082;11.628;2024-02-23T14:53:10;1.13;;;0.38;;
72408;SDS011;60402;48.082;11.628;2024-02-23T14:55:57;5.18;;;1.45;;
72408;SDS011;60402;48.082;11.628;2024-02-23T14:58:43;8.00;;;2.50;;
72408;SDS011;60402;48.082;11.628;2024-02-23T15:01:28;10.93;;;2.83;;
72408;SDS011;60402;48.082;11.628;2024-02-23T15:04:14;35.60;;;9.52;;
72408;SDS011;60402;48.082;11.628;2024-02-23T15:06:59;29.80;;;9.45;;
72408;SDS011;60402;48.082;11.628;2024-02-23T15:09:45;36.03;;;11.20;;
72408;SDS011;60402;48.082;11.628;2024-02-23T15:12:31;11.73;;;4.40;;
72408;SDS011;60402;48.082;11.628;2024-02-23T15:15:17;5.70;;;1.77;;
72408;SDS011;60402;48.082;11.628;2024-02-23T15:18:03;4.50;;;1.83;;
72408;SDS011;60402;48.082;11.628;2024-02-23T15:20:49;6.47;;;2.17;;
72408;SDS011;60402;48.082;11.628;2024-02-23T15:23:37;9.57;;;2.33;;
72408;SDS011;60402;48.082;11.628;2024-02-23T15:26:22;7.63;;;2.58;;
72408;SDS011;60402;48.082;11.628;2024-02-23T15:29:09;3.10;;;0.85;;
72408;SDS011;60402;48.082;11.628;2024-02-23T15:31:55;7.47;;;1.70;;
72408;SDS011;60402;48.082;11.628;2024-02-23T15:34:40;8.10;;;3.17;;
72408;SDS011;60402;48.082;11.628;2024-02-23T15:37:26;5.03;;;1.80;;
72408;SDS011;60402;48.082;11.628;2024-02-23T15:40:12;7.75;;;3.08;;
72408;SDS011;60402;48.082;11.628;2024-02-23T15:42:57;1.25;;;0.80;;
72408;SDS011;60402;48.082;11.628;2024-02-23T15:45:43;1.88;;;0.70;;
72408;SDS011;60402;48.082;11.628;2024-02-23T15:48:29;2.00;;;1.00;;
72408;SDS011;60402;48.082;11.628;2024-02-23T15:51:15;1.05;;;0.63;;
72408;SDS011;60402;48.082;11.628;2024-02-23T15:54:00;1.75;;;0.60;;
72408;SDS011;60402;48.082;11.628;2024-02-23T15:56:46;1.73;;;1.05;;
72408;SDS011;60402;48.082;11.628;2024-02-23T15:59:32;1.70;;;0.65;;
72408;SDS011;60402;48.082;11.628;2024-02-23T16:02:17;0.50;;;0.32;;
72408;SDS011;60402;48.082;11.628;2024-02-23T16:05:03;1.45;;;0.60;;
72408;SDS011;60402;48.082;11.628;2024-02-23T16:07:51;2.15;;;1.20;;
72408;SDS011;60402;48.082;11.628;2024-02-23T16:10:37;0.65;;;0.57;;
72408;SDS011;60402;48.082;11.628;2024-02-23T16:13:22;2.83;;;1.30;;
72408;SDS011;60402;48.082;11.628;2024-02-23T16:16:09;2.20;;;0.70;;
72408;SDS011;60402;48.082;11.628;2024-02-23T16:18:55;3.45;;;1.45;;
72408;SDS011;60402;48.082;11.628;2024-02-23T16:21:41;1.77;;;1.05;;
72408;SDS011;60402;48.082;11.628;2024-02-23T16:24:28;11.43;;;4.05;;
72408;SDS011;60402;48.082;11.628;2024-02-23T16:27:14;5.32;;;1.95;;